In Rescue
 
Open Full Screen Window  High Contrast Mode
Wind Gusting 00 knots
03
November 25, 2020 4:41 AM CST
Weather Information
Wind Direction
  320 °
Wind Speed
  03 kt (3 mph)
Wind Gust
  00 kt (0 mph)
Altimeter
29.91 in
Visibility
7 SM
Temperature
00° C
32° F
Dewpoint
00° C
32° F
Humidity
100%
1hr Rain Fall
00.00 in.
24hr Rain Fall
00.00 in.
Sky Condition
Overcast @ 700 ft
IFR

METAR KLXL 251041Z AUTO 32003KT 7SM OVC007 00/00 A2991 RMK AO2

FAA Disclaimer: The data displayed is for advisory purposes only and is not to be used for flight planning or operations.